sensor_id;sensor_type;location;lat;lon;timestamp;temperature;humidity
4556;DHT22;2290;48.674;9.018;2023-11-21T00:02:14;8.70;99.90
4556;DHT22;2290;48.674;9.018;2023-11-21T00:04:40;8.70;99.90
4556;DHT22;2290;48.674;9.018;2023-11-21T00:07:06;8.80;99.90
4556;DHT22;2290;48.674;9.018;2023-11-21T00:09:32;8.80;99.90
4556;DHT22;2290;48.674;9.018;2023-11-21T00:11:58;8.80;99.90
4556;DHT22;2290;48.674;9.018;2023-11-21T00:14:25;8.70;99.90
4556;DHT22;2290;48.674;9.018;2023-11-21T00:16:51;8.80;99.90
4556;DHT22;2290;48.674;9.018;2023-11-21T00:19:17;8.80;99.90
4556;DHT22;2290;48.674;9.018;2023-11-21T00:21:43;8.70;99.90
4556;DHT22;2290;48.674;9.018;2023-11-21T00:24:11;8.70;99.90
4556;DHT22;2290;48.674;9.018;2023-11-21T00:26:39;8.60;99.90
4556;DHT22;2290;48.674;9.018;2023-11-21T00:29:05;8.60;99.90
4556;DHT22;2290;48.674;9.018;2023-11-21T00:31:34;8.60;99.90
4556;DHT22;2290;48.674;9.018;2023-11-21T00:34:02;8.50;99.90
4556;DHT22;2290;48.674;9.018;2023-11-21T00:36:28;8.50;99.90
4556;DHT22;2290;48.674;9.018;2023-11-21T00:38:54;8.50;99.90
4556;DHT22;2290;48.674;9.018;2023-11-21T00:41:21;8.50;99.90
4556;DHT22;2290;48.674;9.018;2023-11-21T00:43:46;8.50;99.90
4556;DHT22;2290;48.674;9.018;2023-11-21T00:46:12;8.60;99.90
4556;DHT22;2290;48.674;9.018;2023-11-21T00:48:38;8.60;99.90
4556;DHT22;2290;48.674;9.018;2023-11-21T00:51:06;8.60;99.90
4556;DHT22;2290;48.674;9.018;2023-11-21T00:53:32;8.60;99.90
4556;DHT22;2290;48.674;9.018;2023-11-21T00:55:58;8.60;99.90
4556;DHT22;2290;48.674;9.018;2023-11-21T00:58:24;8.50;99.90
4556;DHT22;2290;48.674;9.018;2023-11-21T01:00:50;8.50;99.90
4556;DHT22;2290;48.674;9.018;2023-11-21T01:03:16;8.50;99.90
4556;DHT22;2290;48.674;9.018;2023-11-21T01:05:42;8.40;99.90
4556;DHT22;2290;48.674;9.018;2023-11-21T01:08:08;8.40;99.90
4556;DHT22;2290;48.674;9.018;2023-11-21T01:10:33;8.40;99.90
4556;DHT22;2290;48.674;9.018;2023-11-21T01:13:03;8.40;99.90
4556;DHT22;2290;48.674;9.018;2023-11-21T01:15:33;8.40;99.90
4556;DHT22;2290;48.674;9.018;2023-11-21T01:18:00;8.30;99.90
4556;DHT22;2290;48.674;9.018;2023-11-21T01:20:26;8.30;99.90
4556;DHT22;2290;48.674;9.018;2023-11-21T01:22:51;8.20;99.90
4556;DHT22;2290;48.674;9.018;2023-11-21T01:25:20;8.20;99.90
4556;DHT22;2290;48.674;9.018;2023-11-21T01:27:47;8.30;99.90
4556;DHT22;2290;48.674;9.018;2023-11-21T01:30:13;8.20;99.90
4556;DHT22;2290;48.674;9.018;2023-11-21T01:32:39;8.20;99.90
4556;DHT22;2290;48.674;9.018;2023-11-21T01:35:06;8.20;99.90
4556;DHT22;2290;48.674;9.018;2023-11-21T01:37:32;8.20;99.90
4556;DHT22;2290;48.674;9.018;2023-11-21T01:39:59;8.20;99.90
4556;DHT22;2290;48.674;9.018;2023-11-21T01:42:26;8.20;99.90
4556;DHT22;2290;48.674;9.018;2023-11-21T01:44:52;8.20;99.90
4556;DHT22;2290;48.674;9.018;2023-11-21T01:47:19;8.10;99.90
4556;DHT22;2290;48.674;9.018;2023-11-21T01:49:47;8.10;99.90
4556;DHT22;2290;48.674;9.018;2023-11-21T01:52:13;8.10;99.90
4556;DHT22;2290;48.674;9.018;2023-11-21T01:54:40;8.20;99.90
4556;DHT22;2290;48.674;9.018;2023-11-21T01:57:06;8.20;99.90
4556;DHT22;2290;48.674;9.018;2023-11-21T01:59:35;8.20;99.90
4556;DHT22;2290;48.674;9.018;2023-11-21T02:02:06;8.20;99.90
4556;DHT22;2290;48.674;9.018;2023-11-21T02:04:33;8.10;99.90
4556;DHT22;2290;48.674;9.018;2023-11-21T02:07:00;8.10;99.90
4556;DHT22;2290;48.674;9.018;2023-11-21T02:09:27;8.00;99.90
4556;DHT22;2290;48.674;9.018;2023-11-21T02:11:54;8.00;99.90
4556;DHT22;2290;48.674;9.018;2023-11-21T02:14:22;8.00;99.90
4556;DHT22;2290;48.674;9.018;2023-11-21T02:16:50;8.00;99.90
4556;DHT22;2290;48.674;9.018;2023-11-21T02:19:18;8.00;99.90
4556;DHT22;2290;48.674;9.018;2023-11-21T02:21:51;8.00;99.90
4556;DHT22;2290;48.674;9.018;2023-11-21T02:24:24;8.00;99.90
4556;DHT22;2290;48.674;9.018;2023-11-21T02:26:50;8.00;99.90
4556;DHT22;2290;48.674;9.018;2023-11-21T02:29:20;8.10;99.90
4556;DHT22;2290;48.674;9.018;2023-11-21T02:31:53;8.10;99.90
4556;DHT22;2290;48.674;9.018;2023-11-21T02:34:20;8.20;99.90
4556;DHT22;2290;48.674;9.018;2023-11-21T02:36:47;8.00;99.90
4556;DHT22;2290;48.674;9.018;2023-11-21T02:39:15;8.10;99.90
4556;DHT22;2290;48.674;9.018;2023-11-21T02:41:40;8.10;99.90
4556;DHT22;2290;48.674;9.018;2023-11-21T02:44:06;8.00;99.90
4556;DHT22;2290;48.674;9.018;2023-11-21T02:46:35;8.00;99.90
4556;DHT22;2290;48.674;9.018;2023-11-21T02:49:05;8.00;99.90
4556;DHT22;2290;48.674;9.018;2023-11-21T02:51:36;8.00;99.90
4556;DHT22;2290;48.674;9.018;2023-11-21T02:54:03;8.00;99.90
4556;DHT22;2290;48.674;9.018;2023-11-21T02:56:32;8.00;99.90
4556;DHT22;2290;48.674;9.018;2023-11-21T02:59:00;8.00;99.90
4556;DHT22;2290;48.674;9.018;2023-11-21T03:01:26;8.00;99.90
4556;DHT22;2290;48.674;9.018;2023-11-21T03:03:53;8.00;99.90
4556;DHT22;2290;48.674;9.018;2023-11-21T03:06:19;8.00;99.90
4556;DHT22;2290;48.674;9.018;2023-11-21T03:08:46;7.90;99.90
4556;DHT22;2290;48.674;9.018;2023-11-21T03:11:13;7.90;99.90
4556;DHT22;2290;48.674;9.018;2023-11-21T03:13:39;7.90;99.90
4556;DHT22;2290;48.674;9.018;2023-11-21T03:16:08;7.90;99.90
4556;DHT22;2290;48.674;9.018;2023-11-21T03:18:34;7.90;99.90
4556;DHT22;2290;48.674;9.018;2023-11-21T03:20:59;7.80;99.90
4556;DHT22;2290;48.674;9.018;2023-11-21T03:23:25;7.90;99.90
4556;DHT22;2290;48.674;9.018;2023-11-21T03:25:50;7.90;99.90
4556;DHT22;2290;48.674;9.018;2023-11-21T03:28:17;7.90;99.90
4556;DHT22;2290;48.674;9.018;2023-11-21T03:30:46;7.90;99.90
4556;DHT22;2290;48.674;9.018;2023-11-21T03:33:12;8.00;99.90
4556;DHT22;2290;48.674;9.018;2023-11-21T03:35:39;8.00;99.90
4556;DHT22;2290;48.674;9.018;2023-11-21T03:38:07;8.00;99.90
4556;DHT22;2290;48.674;9.018;2023-11-21T03:40:32;8.00;99.90
4556;DHT22;2290;48.674;9.018;2023-11-21T03:42:58;8.00;99.90
4556;DHT22;2290;48.674;9.018;2023-11-21T03:45:24;8.20;99.90
4556;DHT22;2290;48.674;9.018;2023-11-21T03:47:50;8.00;99.90
4556;DHT22;2290;48.674;9.018;2023-11-21T03:50:15;8.00;99.90
4556;DHT22;2290;48.674;9.018;2023-11-21T03:52:41;8.00;99.90
4556;DHT22;2290;48.674;9.018;2023-11-21T03:55:08;8.00;99.90
4556;DHT22;2290;48.674;9.018;2023-11-21T03:57:34;7.90;99.90
4556;DHT22;2290;48.674;9.018;2023-11-21T03:59:59;7.90;99.90
4556;DHT22;2290;48.674;9.018;2023-11-21T04:02:25;7.90;99.90
4556;DHT22;2290;48.674;9.018;2023-11-21T04:04:51;7.90;99.90
4556;DHT22;2290;48.674;9.018;2023-11-21T04:07:18;7.90;99.90
4556;DHT22;2290;48.674;9.018;2023-11-21T04:09:44;7.90;99.90
4556;DHT22;2290;48.674;9.018;2023-11-21T04:12:10;7.90;99.90
4556;DHT22;2290;48.674;9.018;2023-11-21T04:14:35;7.90;99.90
4556;DHT22;2290;48.674;9.018;2023-11-21T04:17:01;7.90;99.90
4556;DHT22;2290;48.674;9.018;2023-11-21T04:19:28;7.90;99.90
4556;DHT22;2290;48.674;9.018;2023-11-21T04:21:54;7.80;99.90
4556;DHT22;2290;48.674;9.018;2023-11-21T04:24:19;7.80;99.90
4556;DHT22;2290;48.674;9.018;2023-11-21T04:26:47;7.90;99.90
4556;DHT22;2290;48.674;9.018;2023-11-21T04:29:12;7.90;99.90
4556;DHT22;2290;48.674;9.018;2023-11-21T04:31:38;7.90;99.90
4556;DHT22;2290;48.674;9.018;2023-11-21T04:34:03;7.90;99.90
4556;DHT22;2290;48.674;9.018;2023-11-21T04:36:32;7.90;99.90
4556;DHT22;2290;48.674;9.018;2023-11-21T04:38:57;7.90;99.90
4556;DHT22;2290;48.674;9.018;2023-11-21T04:41:24;7.90;99.90
4556;DHT22;2290;48.674;9.018;2023-11-21T04:43:49;7.90;99.90
4556;DHT22;2290;48.674;9.018;2023-11-21T04:46:15;7.90;99.90
4556;DHT22;2290;48.674;9.018;2023-11-21T04:48:40;7.90;99.90
4556;DHT22;2290;48.674;9.018;2023-11-21T04:51:06;7.90;99.90
4556;DHT22;2290;48.674;9.018;2023-11-21T04:53:33;7.90;99.90
4556;DHT22;2290;48.674;9.018;2023-11-21T04:56:01;8.00;99.90
4556;DHT22;2290;48.674;9.018;2023-11-21T04:58:26;7.90;99.90
4556;DHT22;2290;48.674;9.018;2023-11-21T05:00:53;7.80;99.90
4556;DHT22;2290;48.674;9.018;2023-11-21T05:03:19;7.80;99.90
4556;DHT22;2290;48.674;9.018;2023-11-21T05:05:44;7.90;99.90
4556;DHT22;2290;48.674;9.018;2023-11-21T05:08:10;7.80;99.90
4556;DHT22;2290;48.674;9.018;2023-11-21T05:10:35;7.90;99.90
4556;DHT22;2290;48.674;9.018;2023-11-21T05:13:03;7.90;99.90
4556;DHT22;2290;48.674;9.018;2023-11-21T05:15:29;7.90;99.90
4556;DHT22;2290;48.674;9.018;2023-11-21T05:17:54;7.80;99.90
4556;DHT22;2290;48.674;9.018;2023-11-21T05:20:20;7.90;99.90
4556;DHT22;2290;48.674;9.018;2023-11-21T05:22:47;7.80;99.90
4556;DHT22;2290;48.674;9.018;2023-11-21T05:25:14;7.80;99.90
4556;DHT22;2290;48.674;9.018;2023-11-21T05:27:39;7.80;99.90
4556;DHT22;2290;48.674;9.018;2023-11-21T05:30:06;7.80;99.90
4556;DHT22;2290;48.674;9.018;2023-11-21T05:32:32;7.80;99.90
4556;DHT22;2290;48.674;9.018;2023-11-21T05:34:58;7.70;99.90
4556;DHT22;2290;48.674;9.018;2023-11-21T05:37:24;7.70;99.90
4556;DHT22;2290;48.674;9.018;2023-11-21T05:39:53;7.70;99.90
4556;DHT22;2290;48.674;9.018;2023-11-21T05:42:18;7.80;99.90
4556;DHT22;2290;48.674;9.018;2023-11-21T05:44:44;7.70;99.90
4556;DHT22;2290;48.674;9.018;2023-11-21T05:47:10;7.70;99.90
4556;DHT22;2290;48.674;9.018;2023-11-21T05:49:36;7.70;99.90
4556;DHT22;2290;48.674;9.018;2023-11-21T05:52:02;7.80;99.90
4556;DHT22;2290;48.674;9.018;2023-11-21T05:54:28;7.80;99.90
4556;DHT22;2290;48.674;9.018;2023-11-21T05:56:54;7.80;99.90
4556;DHT22;2290;48.674;9.018;2023-11-21T05:59:20;7.80;99.90
4556;DHT22;2290;48.674;9.018;2023-11-21T06:01:46;7.90;99.90
4556;DHT22;2290;48.674;9.018;2023-11-21T06:04:11;7.80;99.90
4556;DHT22;2290;48.674;9.018;2023-11-21T06:06:38;7.90;99.90
4556;DHT22;2290;48.674;9.018;2023-11-21T06:09:04;7.90;99.90
4556;DHT22;2290;48.674;9.018;2023-11-21T06:11:31;7.90;99.90
4556;DHT22;2290;48.674;9.018;2023-11-21T06:13:57;7.90;99.90
4556;DHT22;2290;48.674;9.018;2023-11-21T06:16:23;7.90;99.90
4556;DHT22;2290;48.674;9.018;2023-11-21T06:18:49;7.90;99.90
4556;DHT22;2290;48.674;9.018;2023-11-21T06:21:15;7.90;99.90
4556;DHT22;2290;48.674;9.018;2023-11-21T06:23:42;7.90;99.90
4556;DHT22;2290;48.674;9.018;2023-11-21T06:26:08;7.90;99.90
4556;DHT22;2290;48.674;9.018;2023-11-21T06:28:34;7.90;99.90
4556;DHT22;2290;48.674;9.018;2023-11-21T06:31:01;7.90;99.90
4556;DHT22;2290;48.674;9.018;2023-11-21T06:33:33;7.90;99.90
4556;DHT22;2290;48.674;9.018;2023-11-21T06:35:59;7.90;99.90
4556;DHT22;2290;48.674;9.018;2023-11-21T06:38:25;7.90;99.90
4556;DHT22;2290;48.674;9.018;2023-11-21T06:40:53;7.90;99.90
4556;DHT22;2290;48.674;9.018;2023-11-21T06:43:20;8.00;99.90
4556;DHT22;2290;48.674;9.018;2023-11-21T06:45:47;8.00;99.90
4556;DHT22;2290;48.674;9.018;2023-11-21T06:48:13;8.00;99.90
4556;DHT22;2290;48.674;9.018;2023-11-21T06:50:38;8.00;99.90
4556;DHT22;2290;48.674;9.018;2023-11-21T06:53:04;8.00;99.90
4556;DHT22;2290;48.674;9.018;2023-11-21T06:55:32;8.00;99.90
4556;DHT22;2290;48.674;9.018;2023-11-21T06:57:58;8.00;99.90
4556;DHT22;2290;48.674;9.018;2023-11-21T07:00:23;8.00;99.90
4556;DHT22;2290;48.674;9.018;2023-11-21T07:02:49;8.00;99.90
4556;DHT22;2290;48.674;9.018;2023-11-21T07:05:15;8.00;99.90
4556;DHT22;2290;48.674;9.018;2023-11-21T07:07:40;8.00;99.90
4556;DHT22;2290;48.674;9.018;2023-11-21T07:10:07;8.10;99.90
4556;DHT22;2290;48.674;9.018;2023-11-21T07:12:33;8.10;99.90
4556;DHT22;2290;48.674;9.018;2023-11-21T07:14:59;8.00;99.90
4556;DHT22;2290;48.674;9.018;2023-11-21T07:17:25;8.00;99.90
4556;DHT22;2290;48.674;9.018;2023-11-21T07:19:51;8.00;99.90
4556;DHT22;2290;48.674;9.018;2023-11-21T07:22:16;8.10;99.90
4556;DHT22;2290;48.674;9.018;2023-11-21T07:24:50;8.00;99.90
4556;DHT22;2290;48.674;9.018;2023-11-21T07:27:18;8.00;99.90
4556;DHT22;2290;48.674;9.018;2023-11-21T07:29:45;8.00;99.90
4556;DHT22;2290;48.674;9.018;2023-11-21T07:32:11;8.10;99.90
4556;DHT22;2290;48.674;9.018;2023-11-21T07:34:38;8.10;99.90
4556;DHT22;2290;48.674;9.018;2023-11-21T07:37:03;8.10;99.90
4556;DHT22;2290;48.674;9.018;2023-11-21T07:39:30;8.10;99.90
4556;DHT22;2290;48.674;9.018;2023-11-21T07:41:59;8.10;99.90
4556;DHT22;2290;48.674;9.018;2023-11-21T07:44:24;8.10;99.90
4556;DHT22;2290;48.674;9.018;2023-11-21T07:46:51;8.10;99.90
4556;DHT22;2290;48.674;9.018;2023-11-21T07:49:18;8.10;99.90
4556;DHT22;2290;48.674;9.018;2023-11-21T07:51:45;8.20;99.90
4556;DHT22;2290;48.674;9.018;2023-11-21T07:54:11;8.10;99.90
4556;DHT22;2290;48.674;9.018;2023-11-21T07:56:37;8.10;99.90
4556;DHT22;2290;48.674;9.018;2023-11-21T07:59:04;8.10;99.90
4556;DHT22;2290;48.674;9.018;2023-11-21T08:01:29;8.10;99.90
4556;DHT22;2290;48.674;9.018;2023-11-21T08:03:55;8.10;99.90
4556;DHT22;2290;48.674;9.018;2023-11-21T08:06:24;8.20;99.90
4556;DHT22;2290;48.674;9.018;2023-11-21T08:08:51;8.20;99.90
4556;DHT22;2290;48.674;9.018;2023-11-21T08:11:16;8.20;99.90
4556;DHT22;2290;48.674;9.018;2023-11-21T08:13:42;8.20;99.90
4556;DHT22;2290;48.674;9.018;2023-11-21T08:16:08;8.20;99.90
4556;DHT22;2290;48.674;9.018;2023-11-21T08:18:34;8.20;99.90
4556;DHT22;2290;48.674;9.018;2023-11-21T08:20:59;8.20;99.90
4556;DHT22;2290;48.674;9.018;2023-11-21T08:23:25;8.20;99.90
4556;DHT22;2290;48.674;9.018;2023-11-21T08:25:53;8.20;99.90
4556;DHT22;2290;48.674;9.018;2023-11-21T08:28:19;8.20;99.90
4556;DHT22;2290;48.674;9.018;2023-11-21T08:30:48;8.20;99.90
4556;DHT22;2290;48.674;9.018;2023-11-21T08:33:14;8.20;99.90
4556;DHT22;2290;48.674;9.018;2023-11-21T08:35:39;8.30;99.90
4556;DHT22;2290;48.674;9.018;2023-11-21T08:38:05;8.40;99.90
4556;DHT22;2290;48.674;9.018;2023-11-21T08:40:31;8.40;99.90
4556;DHT22;2290;48.674;9.018;2023-11-21T08:42:57;8.40;99.90
4556;DHT22;2290;48.674;9.018;2023-11-21T08:45:25;8.50;99.90
4556;DHT22;2290;48.674;9.018;2023-11-21T08:47:51;8.60;99.90
4556;DHT22;2290;48.674;9.018;2023-11-21T08:50:17;8.70;99.90
4556;DHT22;2290;48.674;9.018;2023-11-21T08:52:44;8.80;99.90
4556;DHT22;2290;48.674;9.018;2023-11-21T08:55:11;8.80;99.90
4556;DHT22;2290;48.674;9.018;2023-11-21T08:57:39;8.80;99.90
4556;DHT22;2290;48.674;9.018;2023-11-21T09:00:09;8.90;99.90
4556;DHT22;2290;48.674;9.018;2023-11-21T09:02:43;8.80;99.90
4556;DHT22;2290;48.674;9.018;2023-11-21T09:05:10;8.80;99.90
4556;DHT22;2290;48.674;9.018;2023-11-21T09:07:36;8.90;99.90
4556;DHT22;2290;48.674;9.018;2023-11-21T09:10:03;8.90;99.90
4556;DHT22;2290;48.674;9.018;2023-11-21T09:12:29;8.90;99.90
4556;DHT22;2290;48.674;9.018;2023-11-21T09:14:57;8.90;99.90
4556;DHT22;2290;48.674;9.018;2023-11-21T09:17:23;8.90;99.90
4556;DHT22;2290;48.674;9.018;2023-11-21T09:19:49;8.90;99.90
4556;DHT22;2290;48.674;9.018;2023-11-21T09:22:17;9.00;99.90
4556;DHT22;2290;48.674;9.018;2023-11-21T09:24:43;9.00;99.90
4556;DHT22;2290;48.674;9.018;2023-11-21T09:27:09;9.00;99.90
4556;DHT22;2290;48.674;9.018;2023-11-21T09:29:35;9.00;99.90
4556;DHT22;2290;48.674;9.018;2023-11-21T09:32:00;9.00;99.90
4556;DHT22;2290;48.674;9.018;2023-11-21T09:34:26;9.00;99.90
4556;DHT22;2290;48.674;9.018;2023-11-21T09:36:52;9.10;99.90
4556;DHT22;2290;48.674;9.018;2023-11-21T09:39:19;9.10;99.90
4556;DHT22;2290;48.674;9.018;2023-11-21T09:41:50;9.20;99.90
4556;DHT22;2290;48.674;9.018;2023-11-21T09:44:25;9.30;99.90
4556;DHT22;2290;48.674;9.018;2023-11-21T09:46:55;9.30;99.90
4556;DHT22;2290;48.674;9.018;2023-11-21T09:49:26;9.30;99.90
4556;DHT22;2290;48.674;9.018;2023-11-21T09:51:55;9.30;99.90
4556;DHT22;2290;48.674;9.018;2023-11-21T09:54:22;9.20;99.90
4556;DHT22;2290;48.674;9.018;2023-11-21T09:56:48;9.20;99.90
4556;DHT22;2290;48.674;9.018;2023-11-21T09:59:15;9.20;99.90
4556;DHT22;2290;48.674;9.018;2023-11-21T10:01:43;9.20;99.90
4556;DHT22;2290;48.674;9.018;2023-11-21T10:04:11;9.30;99.90
4556;DHT22;2290;48.674;9.018;2023-11-21T10:06:41;9.30;99.90
4556;DHT22;2290;48.674;9.018;2023-11-21T10:09:10;9.20;99.90
4556;DHT22;2290;48.674;9.018;2023-11-21T10:11:42;9.20;99.90
4556;DHT22;2290;48.674;9.018;2023-11-21T10:14:12;9.10;99.90
4556;DHT22;2290;48.674;9.018;2023-11-21T10:16:41;9.10;99.90
4556;DHT22;2290;48.674;9.018;2023-11-21T10:19:10;9.10;99.90
4556;DHT22;2290;48.674;9.018;2023-11-21T10:21:38;9.00;99.90
4556;DHT22;2290;48.674;9.018;2023-11-21T10:24:05;9.00;99.90
4556;DHT22;2290;48.674;9.018;2023-11-21T10:26:32;9.00;99.90
4556;DHT22;2290;48.674;9.018;2023-11-21T10:28:59;9.00;99.90
4556;DHT22;2290;48.674;9.018;2023-11-21T10:31:31;9.10;99.90
4556;DHT22;2290;48.674;9.018;2023-11-21T10:34:18;9.20;99.90
4556;DHT22;2290;48.674;9.018;2023-11-21T10:36:45;9.20;99.90
4556;DHT22;2290;48.674;9.018;2023-11-21T10:39:18;9.20;99.90
4556;DHT22;2290;48.674;9.018;2023-11-21T10:41:46;9.20;99.90
4556;DHT22;2290;48.674;9.018;2023-11-21T10:44:17;9.20;99.90
4556;DHT22;2290;48.674;9.018;2023-11-21T10:46:48;9.20;99.90
4556;DHT22;2290;48.674;9.018;2023-11-21T10:49:20;9.20;99.90
4556;DHT22;2290;48.674;9.018;2023-11-21T10:51:47;9.20;99.90
4556;DHT22;2290;48.674;9.018;2023-11-21T10:54:18;9.30;99.90
4556;DHT22;2290;48.674;9.018;2023-11-21T10:56:44;9.30;99.90
4556;DHT22;2290;48.674;9.018;2023-11-21T10:59:10;9.20;99.90
4556;DHT22;2290;48.674;9.018;2023-11-21T11:01:49;9.30;99.90
4556;DHT22;2290;48.674;9.018;2023-11-21T11:04:18;9.30;99.90
4556;DHT22;2290;48.674;9.018;2023-11-21T11:06:54;9.30;99.90
4556;DHT22;2290;48.674;9.018;2023-11-21T11:09:20;9.30;99.90
4556;DHT22;2290;48.674;9.018;2023-11-21T11:11:46;9.30;99.90
4556;DHT22;2290;48.674;9.018;2023-11-21T11:14:13;9.40;99.90
4556;DHT22;2290;48.674;9.018;2023-11-21T11:16:39;9.30;99.90
4556;DHT22;2290;48.674;9.018;2023-11-21T11:19:11;9.30;99.90
4556;DHT22;2290;48.674;9.018;2023-11-21T11:24:43;9.30;99.90
4556;DHT22;2290;48.674;9.018;2023-11-21T11:33:19;9.40;99.90
4556;DHT22;2290;48.674;9.018;2023-11-21T11:35:38;9.40;99.90
4556;DHT22;2290;48.674;9.018;2023-11-21T11:38:07;9.30;99.90
4556;DHT22;2290;48.674;9.018;2023-11-21T11:40:46;9.30;99.90
4556;DHT22;2290;48.674;9.018;2023-11-21T11:43:12;9.30;99.90
4556;DHT22;2290;48.674;9.018;2023-11-21T11:45:38;9.40;99.90
4556;DHT22;2290;48.674;9.018;2023-11-21T11:48:08;9.40;99.90
4556;DHT22;2290;48.674;9.018;2023-11-21T11:51:01;9.40;99.90
4556;DHT22;2290;48.674;9.018;2023-11-21T11:53:50;9.40;99.90
4556;DHT22;2290;48.674;9.018;2023-11-21T11:56:31;9.40;99.90
4556;DHT22;2290;48.674;9.018;2023-11-21T11:59:03;9.40;99.90
4556;DHT22;2290;48.674;9.018;2023-11-21T12:01:30;9.40;99.90
4556;DHT22;2290;48.674;9.018;2023-11-21T12:04:23;9.40;99.90
4556;DHT22;2290;48.674;9.018;2023-11-21T12:06:53;9.40;99.90
4556;DHT22;2290;48.674;9.018;2023-11-21T12:09:22;9.40;99.90
4556;DHT22;2290;48.674;9.018;2023-11-21T12:11:50;9.40;99.90
4556;DHT22;2290;48.674;9.018;2023-11-21T12:14:17;9.40;99.90
4556;DHT22;2290;48.674;9.018;2023-11-21T12:16:43;9.40;99.90
4556;DHT22;2290;48.674;9.018;2023-11-21T12:19:10;9.40;99.90
4556;DHT22;2290;48.674;9.018;2023-11-21T12:21:36;9.40;99.90
4556;DHT22;2290;48.674;9.018;2023-11-21T12:24:02;9.40;99.90
4556;DHT22;2290;48.674;9.018;2023-11-21T12:26:28;9.40;99.90
4556;DHT22;2290;48.674;9.018;2023-11-21T12:28:54;9.30;99.90
4556;DHT22;2290;48.674;9.018;2023-11-21T12:31:24;9.30;99.90
4556;DHT22;2290;48.674;9.018;2023-11-21T12:33:50;9.40;99.90
4556;DHT22;2290;48.674;9.018;2023-11-21T12:36:16;9.40;99.90
4556;DHT22;2290;48.674;9.018;2023-11-21T12:38:42;9.50;99.90
4556;DHT22;2290;48.674;9.018;2023-11-21T12:41:09;9.60;99.90
4556;DHT22;2290;48.674;9.018;2023-11-21T12:43:35;9.50;99.90
4556;DHT22;2290;48.674;9.018;2023-11-21T12:46:06;9.70;99.90
4556;DHT22;2290;48.674;9.018;2023-11-21T12:48:37;9.60;99.90
4556;DHT22;2290;48.674;9.018;2023-11-21T12:51:05;9.70;99.90
4556;DHT22;2290;48.674;9.018;2023-11-21T12:53:32;9.80;99.90
4556;DHT22;2290;48.674;9.018;2023-11-21T12:58:37;10.10;99.90
4556;DHT22;2290;48.674;9.018;2023-11-21T13:01:05;10.10;99.90
4556;DHT22;2290;48.674;9.018;2023-11-21T13:03:31;10.20;99.90
4556;DHT22;2290;48.674;9.018;2023-11-21T13:05:58;10.30;99.90
4556;DHT22;2290;48.674;9.018;2023-11-21T13:08:25;10.30;99.90
4556;DHT22;2290;48.674;9.018;2023-11-21T13:10:55;10.40;99.90
4556;DHT22;2290;48.674;9.018;2023-11-21T13:13:22;10.40;99.90
4556;DHT22;2290;48.674;9.018;2023-11-21T13:15:55;10.50;99.90
4556;DHT22;2290;48.674;9.018;2023-11-21T13:18:27;10.60;99.90
4556;DHT22;2290;48.674;9.018;2023-11-21T13:20:54;10.60;99.90
4556;DHT22;2290;48.674;9.018;2023-11-21T13:23:20;10.60;99.90
4556;DHT22;2290;48.674;9.018;2023-11-21T13:25:46;10.60;99.90
4556;DHT22;2290;48.674;9.018;2023-11-21T13:28:13;10.60;99.90
4556;DHT22;2290;48.674;9.018;2023-11-21T13:30:41;10.60;99.90
4556;DHT22;2290;48.674;9.018;2023-11-21T13:33:08;10.60;99.90
4556;DHT22;2290;48.674;9.018;2023-11-21T13:35:35;10.60;99.90
4556;DHT22;2290;48.674;9.018;2023-11-21T13:38:09;10.50;99.90
4556;DHT22;2290;48.674;9.018;2023-11-21T13:40:35;10.50;99.90
4556;DHT22;2290;48.674;9.018;2023-11-21T13:43:16;10.40;99.90
4556;DHT22;2290;48.674;9.018;2023-11-21T13:45:44;10.30;99.90
4556;DHT22;2290;48.674;9.018;2023-11-21T13:48:13;10.10;99.90
4556;DHT22;2290;48.674;9.018;2023-11-21T13:50:50;10.10;99.90
4556;DHT22;2290;48.674;9.018;2023-11-21T13:53:27;9.90;99.90
4556;DHT22;2290;48.674;9.018;2023-11-21T13:55:54;9.80;99.90
4556;DHT22;2290;48.674;9.018;2023-11-21T13:58:23;9.70;99.90
4556;DHT22;2290;48.674;9.018;2023-11-21T14:01:09;9.70;99.90
4556;DHT22;2290;48.674;9.018;2023-11-21T14:03:50;9.60;99.90
4556;DHT22;2290;48.674;9.018;2023-11-21T14:06:22;9.60;99.90
4556;DHT22;2290;48.674;9.018;2023-11-21T14:08:54;9.50;99.90
4556;DHT22;2290;48.674;9.018;2023-11-21T14:11:22;9.50;99.90
4556;DHT22;2290;48.674;9.018;2023-11-21T14:13:49;9.50;99.90
4556;DHT22;2290;48.674;9.018;2023-11-21T14:16:16;9.50;99.90
4556;DHT22;2290;48.674;9.018;2023-11-21T14:18:43;9.50;99.90
4556;DHT22;2290;48.674;9.018;2023-11-21T14:21:22;9.50;99.90
4556;DHT22;2290;48.674;9.018;2023-11-21T14:23:48;9.60;99.90
4556;DHT22;2290;48.674;9.018;2023-11-21T14:26:14;9.60;99.90
4556;DHT22;2290;48.674;9.018;2023-11-21T14:28:42;9.60;99.90
4556;DHT22;2290;48.674;9.018;2023-11-21T14:31:08;9.60;99.90
4556;DHT22;2290;48.674;9.018;2023-11-21T14:33:39;9.60;99.90
4556;DHT22;2290;48.674;9.018;2023-11-21T14:36:05;9.50;99.90
4556;DHT22;2290;48.674;9.018;2023-11-21T14:38:30;9.50;99.90
4556;DHT22;2290;48.674;9.018;2023-11-21T14:40:56;9.50;99.90
4556;DHT22;2290;48.674;9.018;2023-11-21T14:43:22;9.50;99.90
4556;DHT22;2290;48.674;9.018;2023-11-21T14:45:49;9.50;99.90
4556;DHT22;2290;48.674;9.018;2023-11-21T14:48:16;9.40;99.90
4556;DHT22;2290;48.674;9.018;2023-11-21T14:50:51;9.40;99.90
4556;DHT22;2290;48.674;9.018;2023-11-21T14:53:37;9.30;99.90
4556;DHT22;2290;48.674;9.018;2023-11-21T14:56:16;9.40;99.90
4556;DHT22;2290;48.674;9.018;2023-11-21T14:58:50;9.40;99.90
4556;DHT22;2290;48.674;9.018;2023-11-21T15:01:16;9.40;99.90
4556;DHT22;2290;48.674;9.018;2023-11-21T15:03:52;9.40;99.90
4556;DHT22;2290;48.674;9.018;2023-11-21T15:06:20;9.40;99.90
4556;DHT22;2290;48.674;9.018;2023-11-21T15:08:56;9.30;99.90
4556;DHT22;2290;48.674;9.018;2023-11-21T15:11:37;9.40;99.90
4556;DHT22;2290;48.674;9.018;2023-11-21T15:14:04;9.30;99.90
4556;DHT22;2290;48.674;9.018;2023-11-21T15:16:36;9.30;99.90
4556;DHT22;2290;48.674;9.018;2023-11-21T15:19:07;9.30;99.90
4556;DHT22;2290;48.674;9.018;2023-11-21T15:21:36;9.30;99.90
4556;DHT22;2290;48.674;9.018;2023-11-21T15:24:02;9.30;99.90
4556;DHT22;2290;48.674;9.018;2023-11-21T15:26:29;9.30;99.90
4556;DHT22;2290;48.674;9.018;2023-11-21T15:28:55;9.30;99.90
4556;DHT22;2290;48.674;9.018;2023-11-21T15:31:21;9.30;99.90
4556;DHT22;2290;48.674;9.018;2023-11-21T15:33:51;9.30;99.90
4556;DHT22;2290;48.674;9.018;2023-11-21T15:36:17;9.20;99.90
4556;DHT22;2290;48.674;9.018;2023-11-21T15:38:43;9.20;99.90
4556;DHT22;2290;48.674;9.018;2023-11-21T15:41:09;9.10;99.90
4556;DHT22;2290;48.674;9.018;2023-11-21T15:43:37;9.10;99.90
4556;DHT22;2290;48.674;9.018;2023-11-21T15:46:02;9.10;99.90
4556;DHT22;2290;48.674;9.018;2023-11-21T15:48:33;9.10;99.90
4556;DHT22;2290;48.674;9.018;2023-11-21T15:50:59;9.00;99.90
4556;DHT22;2290;48.674;9.018;2023-11-21T15:53:25;9.00;99.90
4556;DHT22;2290;48.674;9.018;2023-11-21T15:55:50;9.00;99.90
4556;DHT22;2290;48.674;9.018;2023-11-21T15:58:16;9.00;99.90
4556;DHT22;2290;48.674;9.018;2023-11-21T16:00:42;9.00;99.90
4556;DHT22;2290;48.674;9.018;2023-11-21T16:03:08;8.90;99.90
4556;DHT22;2290;48.674;9.018;2023-11-21T16:05:35;8.90;99.90
4556;DHT22;2290;48.674;9.018;2023-11-21T16:08:01;8.90;99.90
4556;DHT22;2290;48.674;9.018;2023-11-21T16:10:28;8.90;99.90
4556;DHT22;2290;48.674;9.018;2023-11-21T16:12:54;8.90;99.90
4556;DHT22;2290;48.674;9.018;2023-11-21T16:15:19;8.90;99.90
4556;DHT22;2290;48.674;9.018;2023-11-21T16:17:45;8.90;99.90
4556;DHT22;2290;48.674;9.018;2023-11-21T16:20:12;8.90;99.90
4556;DHT22;2290;48.674;9.018;2023-11-21T16:22:40;8.90;99.90
4556;DHT22;2290;48.674;9.018;2023-11-21T16:25:07;9.00;99.90
4556;DHT22;2290;48.674;9.018;2023-11-21T16:27:40;9.00;99.90
4556;DHT22;2290;48.674;9.018;2023-11-21T16:30:07;9.10;99.90
4556;DHT22;2290;48.674;9.018;2023-11-21T16:32:34;9.10;99.90